Time;durP1;ratioP1;P1;durP2;ratioP2;P2;SDS_P1;SDS_P2;PMS_P1;PMS_P2;Temp;Humidity;BMP_temperature;BMP_pressure;BME280_temperature;BME280_humidity;BME280_pressure;Samples;Min_cycle;Max_cycle;Signal;HPM_P1;HPM_P2
2022/06/14 00:01:07;;;;;;;0.50;0.50;;;12.40;99.90;;;;;;5070366;28;20432;-70
2022/06/14 00:03:57;;;;;;;0.50;0.50;;;12.30;99.90;;;;;;5070613;28;20943;-69
2022/06/14 00:06:46;;;;;;;0.50;0.50;;;12.30;99.90;;;;;;5070671;28;20557;-69
2022/06/14 00:09:34;;;;;;;0.73;0.73;;;12.30;99.90;;;;;;5069791;28;20422;-70
2022/06/14 00:12:22;;;;;;;0.50;0.50;;;12.20;99.90;;;;;;5070981;28;20424;-69
2022/06/14 00:15:11;;;;;;;0.50;0.50;;;12.20;99.90;;;;;;5070177;28;20462;-70
2022/06/14 00:18:00;;;;;;;0.50;0.50;;;12.20;99.90;;;;;;5070184;28;20446;-69
2022/06/14 00:20:49;;;;;;;0.40;0.40;;;12.10;99.90;;;;;;5069738;28;20793;-70
2022/06/14 00:23:39;;;;;;;0.50;0.50;;;12.10;99.90;;;;;;5071297;28;20943;-70
2022/06/14 00:26:28;;;;;;;0.50;0.50;;;12.00;99.90;;;;;;5070806;28;20477;-69
2022/06/14 00:29:16;;;;;;;0.50;0.50;;;12.00;99.90;;;;;;5070280;28;20423;-71
2022/06/14 00:32:05;;;;;;;0.50;0.50;;;11.90;99.90;;;;;;5070693;28;20446;-70
2022/06/14 00:34:55;;;;;;;0.50;0.50;;;11.80;99.90;;;;;;5074349;28;20443;-72
2022/06/14 00:37:43;;;;;;;0.50;0.50;;;11.80;99.90;;;;;;5074014;28;20423;-70
2022/06/14 00:40:33;;;;;;;0.50;0.50;;;11.70;99.90;;;;;;5074026;28;20465;-70
2022/06/14 00:43:23;;;;;;;0.50;0.50;;;11.70;99.90;;;;;;5074319;28;20969;-69
2022/06/14 00:46:17;;;;;;;0.50;0.50;;;11.60;99.90;;;;;;5073151;28;20500;-70
2022/06/14 00:49:12;;;;;;;0.47;0.47;;;11.60;99.90;;;;;;5073898;28;20427;-70
2022/06/14 00:52:11;;;;;;;0.50;0.50;;;11.60;99.90;;;;;;5073650;28;20423;-70
2022/06/14 00:55:05;;;;;;;0.50;0.50;;;11.50;99.90;;;;;;5073924;28;20528;-71
2022/06/14 00:57:57;;;;;;;0.50;0.50;;;11.40;99.90;;;;;;5088472;28;20435;-69
2022/06/14 01:00:51;;;;;;;0.50;0.50;;;11.50;99.90;;;;;;5094147;28;20425;-70
2022/06/14 01:03:43;;;;;;;0.50;0.50;;;11.40;99.90;;;;;;5105261;28;20418;-71
2022/06/14 01:06:43;;;;;;;0.50;0.50;;;11.40;99.90;;;;;;5055543;28;20471;-69
2022/06/14 01:09:36;;;;;;;0.40;0.40;;;11.30;99.90;;;;;;5068835;28;20427;-70
2022/06/14 01:12:30;;;;;;;2.77;0.80;;;11.30;99.90;;;;;;5073049;28;20481;-70
2022/06/14 01:15:21;;;;;;;0.50;0.50;;;11.20;99.90;;;;;;5072887;28;20537;-70
2022/06/14 01:18:11;;;;;;;0.50;0.50;;;11.20;99.90;;;;;;5073672;28;20419;-68
2022/06/14 01:20:59;;;;;;;0.40;0.40;;;11.20;99.90;;;;;;5073554;28;20416;-70
2022/06/14 01:23:49;;;;;;;0.40;0.40;;;11.20;99.90;;;;;;5073764;28;20469;-69
2022/06/14 01:26:37;;;;;;;0.97;0.97;;;11.10;99.90;;;;;;5072135;28;20531;-70
2022/06/14 01:29:28;;;;;;;0.50;0.50;;;11.10;99.90;;;;;;5073197;28;20877;-71
2022/06/14 01:32:18;;;;;;;0.40;0.40;;;11.10;99.90;;;;;;5074486;28;20427;-70
2022/06/14 01:35:11;;;;;;;0.50;0.50;;;11.00;99.90;;;;;;5073325;28;20451;-71
2022/06/14 01:38:02;;;;;;;0.50;0.50;;;11.00;99.90;;;;;;5072540;28;20886;-70
2022/06/14 01:41:02;;;;;;;0.50;0.50;;;10.90;99.90;;;;;;5072232;28;20423;-70
2022/06/14 01:44:08;;;;;;;0.40;0.40;;;10.90;99.90;;;;;;5072525;28;20430;-70
2022/06/14 01:47:09;;;;;;;0.40;0.40;;;10.80;99.90;;;;;;5071920;28;20454;-70
2022/06/14 01:53:21;;;;;;;0.50;0.50;;;10.70;99.90;;;;;;5076297;28;20419;-70
2022/06/14 01:56:16;;;;;;;0.50;0.50;;;10.70;99.90;;;;;;5076073;28;20585;-70
2022/06/14 01:59:10;;;;;;;0.50;0.50;;;10.60;99.90;;;;;;5076402;28;20435;-69
2022/06/14 02:02:05;;;;;;;0.43;0.43;;;10.60;99.90;;;;;;5076715;28;20431;-69
2022/06/14 02:05:01;;;;;;;0.50;0.50;;;10.60;99.90;;;;;;5076742;28;20883;-71
2022/06/14 02:07:57;;;;;;;0.50;0.50;;;10.60;99.90;;;;;;5076451;28;20474;-71
2022/06/14 02:10:53;;;;;;;0.50;0.50;;;10.50;99.90;;;;;;5076197;28;20968;-69
2022/06/14 02:13:47;;;;;;;0.50;0.50;;;10.60;99.90;;;;;;5076212;28;20561;-69
2022/06/14 02:16:42;;;;;;;0.50;0.50;;;10.50;99.90;;;;;;5074713;28;20418;-70
2022/06/14 02:19:34;;;;;;;0.50;0.50;;;10.60;99.90;;;;;;5071910;28;20955;-70
2022/06/14 02:22:29;;;;;;;0.60;0.60;;;10.40;99.90;;;;;;5072451;28;20470;-71
2022/06/14 02:25:21;;;;;;;0.50;0.50;;;10.40;99.90;;;;;;5071492;28;20926;-71
2022/06/14 02:28:14;;;;;;;0.50;0.50;;;10.40;99.90;;;;;;5071907;28;20471;-72
2022/06/14 02:31:08;;;;;;;0.50;0.50;;;10.30;99.90;;;;;;5072019;28;20415;-71
2022/06/14 02:34:06;;;;;;;0.50;0.50;;;10.30;99.90;;;;;;5071624;28;20423;-70
2022/06/14 02:37:01;;;;;;;0.50;0.50;;;10.40;99.90;;;;;;5071452;28;20435;-71
2022/06/14 02:39:57;;;;;;;0.50;0.50;;;10.30;99.90;;;;;;5071220;28;20977;-70
2022/06/14 02:42:51;;;;;;;0.50;0.50;;;10.30;99.90;;;;;;5071599;28;20435;-70
2022/06/14 02:45:44;;;;;;;0.50;0.50;;;10.30;99.90;;;;;;5071403;28;20530;-70
2022/06/14 02:48:40;;;;;;;0.50;0.50;;;10.30;99.90;;;;;;5071277;28;20458;-69
2022/06/14 02:51:33;;;;;;;0.50;0.50;;;10.30;99.90;;;;;;5071286;28;20430;-69
2022/06/14 02:54:25;;;;;;;0.50;0.50;;;10.40;99.90;;;;;;5071288;28;20794;-68
2022/06/14 02:57:20;;;;;;;0.57;0.57;;;10.30;99.90;;;;;;5079880;28;20834;-70
2022/06/14 03:00:14;;;;;;;0.40;0.40;;;10.40;99.90;;;;;;5099372;28;20438;-69
2022/06/14 03:03:07;;;;;;;0.50;0.50;;;10.30;99.90;;;;;;5103256;28;20517;-69
2022/06/14 03:06:03;;;;;;;0.50;0.50;;;10.30;99.90;;;;;;5091842;28;20442;-71
2022/06/14 03:08:56;;;;;;;0.50;0.50;;;10.30;99.90;;;;;;5089922;28;20545;-68
2022/06/14 03:11:54;;;;;;;0.50;0.50;;;10.40;99.90;;;;;;5091361;28;20604;-70
2022/06/14 03:14:56;;;;;;;0.50;0.50;;;10.40;99.90;;;;;;5091145;28;20648;-69
2022/06/14 03:17:54;;;;;;;0.50;0.50;;;10.30;99.90;;;;;;5091727;28;20838;-69
2022/06/14 03:20:49;;;;;;;0.50;0.50;;;10.30;99.90;;;;;;5090431;28;20488;-70
2022/06/14 03:23:51;;;;;;;0.50;0.50;;;10.30;99.90;;;;;;5091679;28;20868;-71
2022/06/14 03:26:48;;;;;;;0.50;0.50;;;10.40;99.90;;;;;;5091170;28;20503;-70
2022/06/14 03:29:44;;;;;;;0.50;0.50;;;10.30;99.90;;;;;;5091212;28;20494;-71
2022/06/14 03:32:36;;;;;;;0.50;0.50;;;10.30;99.90;;;;;;5090962;28;20917;-72
2022/06/14 03:35:29;;;;;;;0.50;0.50;;;10.40;99.90;;;;;;5091614;28;20542;-69
2022/06/14 03:38:23;;;;;;;0.60;0.60;;;10.50;99.90;;;;;;5091996;28;20454;-68
2022/06/14 03:41:16;;;;;;;0.50;0.50;;;10.40;99.90;;;;;;5091276;28;20513;-69
2022/06/14 03:44:06;;;;;;;0.50;0.50;;;10.50;99.90;;;;;;5091476;28;20414;-70
2022/06/14 03:47:15;;;;;;;0.50;0.50;;;10.40;99.90;;;;;;5091465;28;20423;-71
2022/06/14 03:50:08;;;;;;;0.50;0.50;;;10.50;99.90;;;;;;5091180;28;20418;-69
2022/06/14 03:53:08;;;;;;;0.50;0.50;;;10.60;99.90;;;;;;5091485;28;20426;-71
2022/06/14 03:56:07;;;;;;;0.50;0.50;;;10.60;99.90;;;;;;5090698;28;20958;-69
2022/06/14 03:59:16;;;;;;;0.40;0.40;;;10.70;99.90;;;;;;5051139;28;20420;-69
2022/06/14 04:02:10;;;;;;;0.50;0.50;;;10.80;99.90;;;;;;5050491;28;20519;-71
2022/06/14 04:05:06;;;;;;;0.47;0.47;;;10.80;99.90;;;;;;5051054;28;20842;-71
2022/06/14 04:07:59;;;;;;;0.50;0.50;;;10.80;99.90;;;;;;5052166;28;20420;-69
2022/06/14 04:10:54;;;;;;;0.50;0.50;;;10.80;99.90;;;;;;5054321;28;20450;-70
2022/06/14 04:13:48;;;;;;;0.50;0.50;;;10.80;99.90;;;;;;5054845;28;20420;-69
2022/06/14 04:16:49;;;;;;;1.17;1.17;;;10.80;99.90;;;;;;5055302;28;20850;-71
2022/06/14 04:19:50;;;;;;;0.50;0.50;;;10.80;99.90;;;;;;5053971;28;20950;-70
2022/06/14 04:22:45;;;;;;;0.50;0.50;;;10.90;99.90;;;;;;5054339;28;20502;-69
2022/06/14 04:25:39;;;;;;;0.50;0.50;;;10.90;99.90;;;;;;5054563;28;20960;-71
2022/06/14 04:28:33;;;;;;;0.40;0.40;;;10.90;99.90;;;;;;5053807;28;20991;-70
2022/06/14 04:31:29;;;;;;;0.50;0.50;;;10.90;99.90;;;;;;5053859;28;20466;-68
2022/06/14 04:34:24;;;;;;;0.50;0.50;;;11.00;99.90;;;;;;5054019;28;20419;-70
2022/06/14 04:37:16;;;;;;;0.40;0.40;;;11.20;99.90;;;;;;5053430;28;20459;-70
2022/06/14 04:40:09;;;;;;;0.50;0.50;;;11.30;99.90;;;;;;5053775;28;20470;-70
2022/06/14 04:43:02;;;;;;;0.50;0.50;;;11.50;99.90;;;;;;5053841;28;20419;-70
2022/06/14 04:45:56;;;;;;;0.77;0.67;;;11.60;99.90;;;;;;5053582;28;20506;-71
2022/06/14 04:48:49;;;;;;;0.50;0.50;;;11.80;99.90;;;;;;5053813;28;20460;-71
2022/06/14 04:51:43;;;;;;;0.50;0.50;;;11.90;99.90;;;;;;5054276;28;20802;-70
2022/06/14 04:54:36;;;;;;;0.50;0.50;;;12.00;99.90;;;;;;5053483;28;20470;-70
2022/06/14 04:57:31;;;;;;;1.10;0.77;;;12.10;99.90;;;;;;5076918;28;20811;-70
2022/06/14 05:00:22;;;;;;;0.50;0.50;;;12.30;99.90;;;;;;5104068;28;20420;-71
2022/06/14 05:03:17;;;;;;;0.50;0.50;;;12.90;99.90;;;;;;5100405;28;20431;-71
2022/06/14 05:06:09;;;;;;;1.33;0.83;;;12.50;99.90;;;;;;5094665;28;20829;-68
2022/06/14 05:09:02;;;;;;;0.50;0.50;;;12.50;99.90;;;;;;5094634;28;20458;-70
2022/06/14 05:11:58;;;;;;;0.50;0.50;;;12.50;99.90;;;;;;5094553;28;20426;-72
2022/06/14 05:14:52;;;;;;;0.47;0.47;;;12.50;99.90;;;;;;5094312;28;20608;-68
2022/06/14 05:17:45;;;;;;;0.80;0.80;;;12.50;99.90;;;;;;5094359;28;20505;-70
2022/06/14 05:20:40;;;;;;;0.50;0.50;;;12.60;99.90;;;;;;5092580;28;20415;-71
2022/06/14 05:23:34;;;;;;;1.33;0.70;;;12.60;99.90;;;;;;5093594;28;20446;-68
2022/06/14 05:26:38;;;;;;;0.50;0.50;;;12.70;99.90;;;;;;5092839;28;20462;-70
2022/06/14 05:29:35;;;;;;;0.50;0.50;;;12.70;99.90;;;;;;5094218;28;20615;-72
2022/06/14 05:32:31;;;;;;;0.60;0.60;;;13.00;99.90;;;;;;5093084;28;20426;-72
2022/06/14 05:35:29;;;;;;;0.50;0.50;;;13.10;99.90;;;;;;5094191;28;20527;-71
2022/06/14 05:38:25;;;;;;;0.57;0.57;;;13.00;99.90;;;;;;5095068;28;20430;-70
2022/06/14 05:41:19;;;;;;;0.47;0.47;;;13.00;99.90;;;;;;5071828;28;20427;-72
2022/06/14 05:44:11;;;;;;;0.50;0.50;;;13.00;99.90;;;;;;5073185;28;20865;-69
2022/06/14 05:47:07;;;;;;;1.33;1.03;;;13.00;99.90;;;;;;5073027;28;20426;-70
2022/06/14 05:49:59;;;;;;;0.50;0.50;;;13.00;99.90;;;;;;5072993;28;20617;-70
2022/06/14 05:52:53;;;;;;;0.47;0.47;;;13.00;99.90;;;;;;5073264;28;20419;-69
2022/06/14 05:55:46;;;;;;;0.50;0.50;;;12.80;99.90;;;;;;5073474;28;20447;-69
2022/06/14 05:58:39;;;;;;;0.50;0.50;;;13.10;99.90;;;;;;5053740;28;20990;-69
2022/06/14 06:01:33;;;;;;;0.50;0.50;;;13.20;99.90;;;;;;5060193;28;20970;-70
2022/06/14 06:04:26;;;;;;;0.50;0.50;;;13.20;99.90;;;;;;5072769;28;20439;-71
2022/06/14 06:07:20;;;;;;;0.50;0.50;;;13.20;99.90;;;;;;5072770;28;20480;-71
2022/06/14 06:10:15;;;;;;;0.50;0.50;;;13.20;99.90;;;;;;5072604;28;20502;-69
2022/06/14 06:13:08;;;;;;;0.40;0.40;;;13.30;99.90;;;;;;5073157;28;20480;-70
2022/06/14 06:15:58;;;;;;;0.50;0.50;;;13.40;99.90;;;;;;5072077;28;20466;-71
2022/06/14 06:18:54;;;;;;;1.50;0.60;;;13.60;99.90;;;;;;5072953;28;20473;-71
2022/06/14 06:21:50;;;;;;;0.40;0.40;;;13.60;99.90;;;;;;5083949;28;20431;-70
2022/06/14 06:24:46;;;;;;;0.40;0.40;;;13.80;99.90;;;;;;5085703;28;20884;-69
2022/06/14 06:27:43;;;;;;;1.13;1.10;;;13.80;99.90;;;;;;5085786;28;20451;-71
2022/06/14 06:30:36;;;;;;;0.47;0.47;;;13.90;99.90;;;;;;5085190;28;20463;-69
2022/06/14 06:33:26;;;;;;;0.50;0.50;;;14.10;99.90;;;;;;5082925;28;20427;-71
2022/06/14 06:36:30;;;;;;;0.60;0.50;;;14.20;99.90;;;;;;5079818;28;20771;-68
2022/06/14 06:39:44;;;;;;;0.60;0.60;;;14.20;99.90;;;;;;5079091;28;20443;-70
2022/06/14 06:42:35;;;;;;;0.50;0.50;;;14.20;99.90;;;;;;5079121;28;20420;-69
2022/06/14 06:45:29;;;;;;;0.40;0.40;;;14.20;99.90;;;;;;5072794;28;21032;-70
2022/06/14 06:48:22;;;;;;;0.50;0.50;;;14.20;99.90;;;;;;5072157;28;20538;-69
2022/06/14 06:51:15;;;;;;;0.80;0.80;;;14.20;99.90;;;;;;5071484;28;20534;-70
2022/06/14 06:54:12;;;;;;;0.50;0.50;;;14.30;99.90;;;;;;5072102;28;20805;-69
2022/06/14 06:57:02;;;;;;;2.00;1.33;;;14.40;99.90;;;;;;5079575;28;20422;-72
2022/06/14 06:59:54;;;;;;;5.20;1.03;;;14.50;99.90;;;;;;5092721;28;20432;-71
2022/06/14 07:02:47;;;;;;;2.40;2.30;;;14.70;99.90;;;;;;5111205;28;20446;-69
2022/06/14 07:05:35;;;;;;;2.10;0.63;;;14.50;99.90;;;;;;5092750;28;20220;-69
2022/06/14 07:08:35;;;;;;;0.50;0.50;;;14.50;99.90;;;;;;5072288;28;20476;-70
2022/06/14 07:11:30;;;;;;;0.50;0.50;;;14.50;99.90;;;;;;5071944;28;20466;-70
2022/06/14 07:14:24;;;;;;;0.40;0.40;;;14.70;99.90;;;;;;5070861;28;20480;-69
2022/06/14 07:17:17;;;;;;;1.17;0.50;;;14.90;99.90;;;;;;5071504;28;20480;-70
2022/06/14 07:20:25;;;;;;;1.27;0.50;;;15.00;99.90;;;;;;5072070;28;20207;-72
2022/06/14 07:23:20;;;;;;;0.80;0.80;;;15.20;99.90;;;;;;5071552;28;20423;-69
2022/06/14 07:26:16;;;;;;;0.50;0.50;;;15.30;99.90;;;;;;5071881;28;20268;-71
2022/06/14 07:29:12;;;;;;;2.10;0.80;;;15.20;99.90;;;;;;5071858;28;20200;-69
2022/06/14 07:32:07;;;;;;;0.70;0.70;;;15.30;99.90;;;;;;5073112;28;20200;-69
2022/06/14 07:34:55;;;;;;;0.47;0.47;;;15.20;99.90;;;;;;5071616;28;20282;-70
2022/06/14 07:37:47;;;;;;;0.77;0.50;;;15.30;99.90;;;;;;5072446;28;20197;-70
2022/06/14 07:41:00;;;;;;;0.50;0.50;;;15.50;99.90;;;;;;5070647;28;20547;-70
2022/06/14 07:43:58;;;;;;;0.50;0.50;;;15.50;99.90;;;;;;5073738;28;20239;-72
2022/06/14 07:46:57;;;;;;;0.40;0.40;;;15.50;99.90;;;;;;5074329;28;20197;-70
2022/06/14 07:49:53;;;;;;;0.40;0.40;;;15.50;99.90;;;;;;5076213;28;20319;-72
2022/06/14 07:52:46;;;;;;;0.90;0.90;;;15.60;99.90;;;;;;5076250;28;20250;-72
2022/06/14 07:55:39;;;;;;;0.40;0.40;;;15.60;99.90;;;;;;5075346;28;20300;-70
2022/06/14 07:58:33;;;;;;;0.87;0.87;;;15.60;99.90;;;;;;5095469;28;20672;-71
2022/06/14 08:01:31;;;;;;;0.40;0.40;;;15.70;99.90;;;;;;5096678;28;20672;-72
2022/06/14 08:04:26;;;;;;;0.50;0.50;;;16.00;99.90;;;;;;5082337;28;20204;-70
2022/06/14 08:07:18;;;;;;;0.40;0.40;;;16.20;99.90;;;;;;5083244;28;20204;-71
2022/06/14 08:10:12;;;;;;;0.70;0.70;;;16.10;99.90;;;;;;5061879;28;20697;-71
2022/06/14 08:13:04;;;;;;;0.50;0.50;;;16.10;99.90;;;;;;5063999;28;20570;-71
2022/06/14 08:15:57;;;;;;;0.50;0.50;;;16.10;99.90;;;;;;5058368;28;20233;-71
2022/06/14 08:18:49;;;;;;;0.40;0.40;;;16.30;99.90;;;;;;5091595;28;20196;-70
2022/06/14 08:21:41;;;;;;;0.60;0.50;;;16.70;99.90;;;;;;5095878;28;20203;-71
2022/06/14 08:24:34;;;;;;;0.50;0.50;;;16.80;99.90;;;;;;5095976;28;20277;-68
2022/06/14 08:27:26;;;;;;;1.80;0.90;;;16.80;99.90;;;;;;5096179;28;20200;-70
2022/06/14 08:30:18;;;;;;;0.70;0.70;;;16.90;99.90;;;;;;5083221;28;20223;-71
2022/06/14 08:33:18;;;;;;;0.50;0.50;;;17.10;99.90;;;;;;5076286;28;20227;-72
2022/06/14 08:36:10;;;;;;;7.65;1.98;;;16.90;99.90;;;;;;5076019;28;20256;-71
2022/06/14 08:39:06;;;;;;;0.90;0.80;;;16.60;99.90;;;;;;5066091;28;20242;-72
2022/06/14 08:42:02;;;;;;;0.40;0.40;;;16.40;99.90;;;;;;5063979;28;20677;-70
2022/06/14 08:44:58;;;;;;;0.40;0.40;;;16.50;99.90;;;;;;5055289;28;20608;-69
2022/06/14 08:48:04;;;;;;;0.73;0.73;;;16.60;99.90;;;;;;5061420;28;20289;-70
2022/06/14 08:51:05;;;;;;;0.82;0.80;;;17.10;99.90;;;;;;5063690;28;20212;-70
2022/06/14 08:54:16;;;;;;;3.25;1.60;;;17.50;99.90;;;;;;5065504;28;20265;-68
2022/06/14 08:57:14;;;;;;;1.90;1.80;;;17.70;99.90;;;;;;5074415;28;20226;-69
2022/06/14 09:00:20;;;;;;;0.40;0.40;;;17.80;99.90;;;;;;5075172;28;20201;-72
2022/06/14 09:03:38;;;;;;;0.50;0.50;;;17.90;99.90;;;;;;5086950;28;20207;-70
2022/06/14 09:07:12;;;;;;;1.10;0.77;;;18.30;99.40;;;;;;5080688;28;20216;-70
2022/06/14 09:10:23;;;;;;;1.25;0.50;;;18.40;98.50;;;;;;5094942;28;20199;-70
2022/06/14 09:13:34;;;;;;;0.57;0.57;;;18.60;97.80;;;;;;5095025;28;20204;-71
2022/06/14 09:16:59;;;;;;;0.40;0.40;;;18.60;97.90;;;;;;5095396;28;20220;-69
2022/06/14 09:20:01;;;;;;;1.85;1.75;;;18.50;97.60;;;;;;5067336;28;20204;-69
2022/06/14 09:23:12;;;;;;;0.60;0.60;;;18.50;97.50;;;;;;5095270;28;20275;-71
2022/06/14 09:26:27;;;;;;;0.45;0.45;;;18.50;97.00;;;;;;5094103;28;20700;-69
2022/06/14 09:29:48;;;;;;;0.50;0.50;;;18.40;96.10;;;;;;5094231;28;20643;-70
2022/06/14 09:33:16;;;;;;;0.68;0.60;;;18.60;96.20;;;;;;5065413;28;20704;-72
2022/06/14 09:36:37;;;;;;;0.40;0.40;;;18.70;95.50;;;;;;5094746;28;20726;-73
2022/06/14 09:39:51;;;;;;;0.40;0.40;;;18.70;94.80;;;;;;5086194;28;20202;-69
2022/06/14 09:43:09;;;;;;;0.57;0.57;;;18.60;94.10;;;;;;5094771;28;20199;-73
2022/06/14 09:46:10;;;;;;;0.98;0.57;;;18.80;94.10;;;;;;5094978;28;20231;-73
2022/06/14 09:49:25;;;;;;;2.58;0.50;;;18.90;93.20;;;;;;5061154;28;20662;-70
2022/06/14 09:52:43;;;;;;;0.60;0.60;;;18.90;93.20;;;;;;5054524;28;20224;-72
2022/06/14 09:56:06;;;;;;;0.50;0.50;;;18.60;94.00;;;;;;5059492;28;20224;-72
2022/06/14 09:59:18;;;;;;;0.45;0.45;;;18.80;93.70;;;;;;5053924;28;20220;-71
2022/06/14 10:02:15;;;;;;;0.40;0.40;;;18.90;93.50;;;;;;5053949;28;20200;-72
2022/06/14 10:05:26;;;;;;;0.40;0.40;;;19.20;93.30;;;;;;5053350;28;20221;-70
2022/06/14 10:08:36;;;;;;;0.40;0.40;;;19.20;92.90;;;;;;5053574;28;20213;-70
2022/06/14 10:11:37;;;;;;;0.70;0.70;;;19.00;93.00;;;;;;5054240;28;20221;-72
2022/06/14 10:14:46;;;;;;;0.82;0.50;;;18.90;93.00;;;;;;5061297;28;20616;-69
2022/06/14 10:17:59;;;;;;;0.40;0.40;;;18.90;93.10;;;;;;5052841;28;20216;-72
2022/06/14 10:20:58;;;;;;;0.40;0.40;;;19.10;92.40;;;;;;5053901;28;20276;-71
2022/06/14 10:24:00;;;;;;;0.40;0.40;;;19.20;92.10;;;;;;5053191;28;20197;-72
2022/06/14 10:30:36;;;;;;;0.40;0.40;;;19.70;91.20;;;;;;5058076;28;20674;-70
2022/06/14 10:33:39;;;;;;;0.60;0.60;;;19.30;91.60;;;;;;5061459;28;20307;-71
2022/06/14 10:36:49;;;;;;;1.80;0.60;;;19.50;91.70;;;;;;5067711;28;20887;-73
2022/06/14 10:40:04;;;;;;;0.50;0.50;;;19.50;91.40;;;;;;5054157;28;20200;-69
2022/06/14 10:43:01;;;;;;;0.50;0.50;;;19.80;91.00;;;;;;5053692;28;20247;-69
2022/06/14 10:45:57;;;;;;;0.40;0.40;;;20.30;90.50;;;;;;5067188;28;20212;-70
2022/06/14 10:49:12;;;;;;;0.50;0.50;;;20.40;90.30;;;;;;5070890;28;20214;-71
2022/06/14 10:52:18;;;;;;;0.50;0.50;;;20.00;90.20;;;;;;5061145;28;20221;-72
2022/06/14 10:55:31;;;;;;;0.50;0.50;;;20.00;90.30;;;;;;5072261;28;20300;-70
2022/06/14 10:58:48;;;;;;;0.40;0.40;;;20.30;89.60;;;;;;5063138;28;20193;-70
2022/06/14 11:01:47;;;;;;;0.65;0.52;;;20.60;88.90;;;;;;5072239;28;20194;-70
2022/06/14 11:04:40;;;;;;;0.40;0.40;;;21.00;86.70;;;;;;5068851;28;20240;-71
2022/06/14 11:07:46;;;;;;;0.68;0.50;;;20.70;86.90;;;;;;5063623;28;20193;-69
2022/06/14 11:10:54;;;;;;;0.40;0.40;;;20.60;86.80;;;;;;5070594;28;20728;-70
2022/06/14 11:13:56;;;;;;;0.50;0.50;;;20.60;87.70;;;;;;5070863;28;20201;-70
2022/06/14 11:17:17;;;;;;;0.50;0.50;;;21.00;86.40;;;;;;5060812;28;20262;-69
2022/06/14 11:20:18;;;;;;;0.50;0.50;;;20.90;84.90;;;;;;5059253;28;20725;-69
2022/06/14 11:23:12;;;;;;;1.73;0.50;;;20.90;86.20;;;;;;5051830;28;20201;-70
2022/06/14 11:26:07;;;;;;;0.60;0.60;;;21.00;84.70;;;;;;5050990;28;20719;-70
2022/06/14 11:29:07;;;;;;;0.50;0.50;;;21.30;83.60;;;;;;5056481;28;20208;-69
2022/06/14 11:32:02;;;;;;;0.70;0.50;;;21.70;83.20;;;;;;5070917;28;20309;-69
2022/06/14 11:35:02;;;;;;;0.50;0.50;;;21.60;82.70;;;;;;5067911;28;20304;-70
2022/06/14 11:38:05;;;;;;;0.45;0.45;;;21.60;81.30;;;;;;5058371;28;20685;-70
2022/06/14 11:40:58;;;;;;;0.77;0.77;;;21.20;81.40;;;;;;5059632;28;20617;-69
2022/06/14 11:43:59;;;;;;;0.50;0.50;;;21.10;81.90;;;;;;5070973;28;20199;-69
2022/06/14 11:46:58;;;;;;;2.28;1.70;;;21.10;82.90;;;;;;5070046;28;20574;-70
2022/06/14 11:49:55;;;;;;;0.80;0.80;;;20.80;82.20;;;;;;5070587;28;20197;-70
2022/06/14 11:53:10;;;;;;;0.43;0.43;;;20.40;83.10;;;;;;5070445;28;20212;-69
2022/06/14 11:56:05;;;;;;;0.40;0.40;;;20.50;84.20;;;;;;5070719;28;20220;-69
2022/06/14 11:59:25;;;;;;;4.57;0.60;;;21.10;83.70;;;;;;5069528;28;20207;-71
2022/06/14 12:02:33;;;;;;;0.40;0.40;;;21.20;82.30;;;;;;5070585;28;20200;-70
2022/06/14 12:05:35;;;;;;;0.65;0.50;;;21.10;82.00;;;;;;5069858;28;20266;-70
2022/06/14 12:08:46;;;;;;;0.50;0.50;;;21.30;82.40;;;;;;5070737;28;20201;-70
2022/06/14 12:11:39;;;;;;;0.73;0.50;;;21.30;81.50;;;;;;5070027;28;20208;-70
2022/06/14 12:14:49;;;;;;;0.50;0.50;;;21.10;80.20;;;;;;5071228;28;20240;-69
2022/06/14 12:17:42;;;;;;;1.77;1.05;;;20.50;81.40;;;;;;5069965;28;20205;-70
2022/06/14 12:20:40;;;;;;;0.40;0.40;;;20.50;80.50;;;;;;5069847;28;20242;-69
2022/06/14 12:23:34;;;;;;;0.50;0.50;;;20.80;81.80;;;;;;5070164;28;20208;-70
2022/06/14 12:26:39;;;;;;;1.40;0.68;;;21.00;80.80;;;;;;5057273;28;20306;-70
2022/06/14 12:29:32;;;;;;;0.40;0.40;;;21.40;79.20;;;;;;5052235;28;20347;-69
2022/06/14 12:32:28;;;;;;;0.60;0.60;;;21.70;80.10;;;;;;5053326;28;20299;-69
2022/06/14 12:35:21;;;;;;;0.50;0.50;;;21.80;80.00;;;;;;5053706;28;20267;-69
2022/06/14 12:38:16;;;;;;;0.50;0.50;;;21.80;79.40;;;;;;5054562;28;20224;-68
2022/06/14 12:41:13;;;;;;;0.40;0.40;;;22.00;78.40;;;;;;5064636;28;20301;-70
2022/06/14 12:44:19;;;;;;;0.60;0.60;;;23.20;77.90;;;;;;5094399;28;20261;-69
2022/06/14 12:47:16;;;;;;;0.40;0.40;;;24.20;74.30;;;;;;5094016;28;20223;-70
2022/06/14 12:50:13;;;;;;;0.50;0.50;;;25.30;74.40;;;;;;5093812;28;20681;-66
2022/06/14 12:53:05;;;;;;;1.65;1.25;;;28.00;67.90;;;;;;5093758;28;20291;-66
2022/06/14 12:55:59;;;;;;;0.40;0.40;;;29.40;62.50;;;;;;5093816;28;20258;-67
2022/06/14 12:58:57;;;;;;;0.40;0.40;;;30.20;58.90;;;;;;5094236;28;20448;-67
2022/06/14 13:01:51;;;;;;;0.50;0.50;;;28.20;59.00;;;;;;5087737;28;20258;-67
2022/06/14 13:04:46;;;;;;;1.13;1.02;;;26.40;60.30;;;;;;5064234;28;20358;-66
2022/06/14 13:07:45;;;;;;;0.50;0.50;;;26.30;61.60;;;;;;5063210;28;20201;-66
2022/06/14 13:10:47;;;;;;;0.63;0.63;;;27.10;61.10;;;;;;5062598;28;20215;-66
2022/06/14 13:13:58;;;;;;;0.40;0.40;;;28.40;57.90;;;;;;5062918;28;20216;-66
2022/06/14 13:17:06;;;;;;;0.40;0.40;;;29.00;56.70;;;;;;5064791;28;20724;-67
2022/06/14 13:19:59;;;;;;;0.40;0.40;;;31.40;54.90;;;;;;5062383;28;20190;-66
2022/06/14 13:23:03;;;;;;;0.50;0.50;;;32.60;51.20;;;;;;5061125;28;20700;-66
2022/06/14 13:26:20;;;;;;;0.40;0.40;;;33.30;50.30;;;;;;5064037;28;20254;-66
2022/06/14 13:29:29;;;;;;;0.40;0.40;;;33.90;48.10;;;;;;5058696;28;20205;-66
2022/06/14 13:32:44;;;;;;;0.40;0.40;;;33.70;47.50;;;;;;5097888;23;20220;-68
2022/06/14 13:35:43;;;;;;;0.50;0.50;;;32.70;47.50;;;;;;5087421;28;20827;-68
2022/06/14 13:38:36;;;;;;;0.63;0.60;;;33.20;47.30;;;;;;5074165;28;20591;-68
2022/06/14 13:41:34;;;;;;;0.40;0.40;;;33.80;46.30;;;;;;5062407;28;20693;-68
2022/06/14 13:44:25;;;;;;;0.52;0.52;;;34.40;45.40;;;;;;5054223;28;20220;-68
2022/06/14 13:47:19;;;;;;;0.40;0.40;;;34.50;44.80;;;;;;5055239;28;20339;-68
2022/06/14 13:50:13;;;;;;;0.40;0.40;;;33.90;45.20;;;;;;5054863;28;20228;-68
2022/06/14 13:53:06;;;;;;;0.40;0.40;;;34.70;44.50;;;;;;5054101;28;20221;-68
2022/06/14 13:56:06;;;;;;;0.40;0.40;;;36.20;42.50;;;;;;5054691;28;20654;-68
2022/06/14 13:59:05;;;;;;;0.40;0.40;;;34.00;42.60;;;;;;5055123;28;20208;-69
2022/06/14 14:02:00;;;;;;;0.40;0.40;;;34.00;43.30;;;;;;5053072;28;20274;-69
2022/06/14 14:04:52;;;;;;;0.40;0.40;;;34.00;43.70;;;;;;5054157;28;20206;-69
2022/06/14 14:07:49;;;;;;;0.40;0.40;;;34.90;42.90;;;;;;5073645;28;20208;-68
2022/06/14 14:10:49;;;;;;;0.40;0.40;;;35.70;41.90;;;;;;5074308;28;20231;-67
2022/06/14 14:13:44;;;;;;;0.50;0.50;;;35.20;41.80;;;;;;5075991;28;20860;-68
2022/06/14 14:16:38;;;;;;;0.50;0.50;;;35.10;41.80;;;;;;5076423;28;20318;-68
2022/06/14 14:19:36;;;;;;;0.40;0.40;;;34.60;42.50;;;;;;5074004;28;20208;-68
2022/06/14 14:22:30;;;;;;;0.40;0.40;;;34.70;43.00;;;;;;5073915;28;20289;-69
2022/06/14 14:25:24;;;;;;;0.40;0.40;;;36.60;40.70;;;;;;5071843;28;20192;-69
2022/06/14 14:28:24;;;;;;;0.50;0.50;;;37.30;40.00;;;;;;5072487;28;20212;-68
2022/06/14 14:31:26;;;;;;;0.50;0.50;;;37.70;39.40;;;;;;5070860;28;20685;-68
2022/06/14 14:34:22;;;;;;;0.40;0.40;;;37.50;39.90;;;;;;5071865;28;20226;-68
2022/06/14 14:37:16;;;;;;;0.50;0.50;;;38.80;38.20;;;;;;5072311;28;20558;-68
2022/06/14 14:40:13;;;;;;;0.40;0.40;;;38.10;38.70;;;;;;5071914;28;20692;-68
2022/06/14 14:43:11;;;;;;;0.50;0.50;;;37.40;38.20;;;;;;5072404;28;20199;-69
2022/06/14 14:46:07;;;;;;;0.40;0.40;;;36.90;38.60;;;;;;5070922;28;20279;-69
2022/06/14 14:49:03;;;;;;;0.40;0.40;;;35.90;39.60;;;;;;5071568;28;20253;-69
2022/06/14 14:51:56;;;;;;;0.40;0.40;;;35.70;39.40;;;;;;5070694;28;20219;-69
2022/06/14 14:54:53;;;;;;;0.40;0.40;;;36.40;39.40;;;;;;5071767;28;20231;-68
2022/06/14 14:57:48;;;;;;;0.40;0.40;;;35.10;39.30;;;;;;5072721;28;20250;-68
2022/06/14 15:07:07;;;;;;;0.50;0.50;;;33.10;41.90;;;;;;5043749;28;20204;-68
2022/06/14 15:10:00;;;;;;;1.17;0.50;;;32.80;42.20;;;;;;5072343;28;20201;-68
2022/06/14 15:12:50;;;;;;;0.40;0.40;;;33.40;42.10;;;;;;5072090;28;20208;-68
2022/06/14 15:15:39;;;;;;;1.05;1.05;;;33.80;41.90;;;;;;5072737;28;20219;-68
2022/06/14 15:21:38;;;;;;;0.40;0.40;;;34.00;40.70;;;;;;5062849;28;20217;-68
2022/06/14 15:24:29;;;;;;;0.40;0.40;;;33.70;42.10;;;;;;5065055;28;20798;-69
2022/06/14 15:27:32;;;;;;;0.40;0.40;;;33.90;42.10;;;;;;5071896;28;20232;-68
2022/06/14 15:30:39;;;;;;;0.50;0.50;;;34.30;41.20;;;;;;5071941;28;20706;-68
2022/06/14 15:33:33;;;;;;;0.80;0.80;;;35.10;40.60;;;;;;5073278;28;20201;-68
2022/06/14 15:36:27;;;;;;;0.40;0.40;;;35.60;40.10;;;;;;5073885;28;20285;-68
2022/06/14 15:39:20;;;;;;;0.47;0.47;;;34.30;41.20;;;;;;5071863;28;20232;-68
2022/06/14 15:42:25;;;;;;;0.40;0.40;;;34.10;41.30;;;;;;5057657;28;20299;-68